PRIVATE WETTERSTATION BILLIGHEIM-ALLFELD                       ZURCK
Wetterdaten: Samstag, 09.04.2022
Datum Zeit Temp. A. Temp. A. min Temp. A. max Feuchte A. Luftdruck Regen Wind Richtung Richtung Sonnenschein ET Solar Taupunkt Windchill Windben Empfang
09.04.2022 00:00 0,3 C 0,2 C 0,3 C 91 % 994,7 hPa 1,0 l/m 0,0 km/h (0 Bft) N 360 0 min 0,000 mm 0 W/m -1,0 C 0,3 C 6,4 km/h (2 Bft) 100 %
09.04.2022 00:10 0,3 C 0,3 C 0,3 C 91 % 994,9 hPa 0,6 l/m 0,0 km/h (0 Bft) N 360 0 min 0,000 mm 0 W/m -1,0 C 0,3 C 4,8 km/h (1 Bft) 100 %
09.04.2022 00:20 0,4 C 0,3 C 0,4 C 91 % 995,3 hPa 0,4 l/m 1,6 km/h (1 Bft) N 360 0 min 0,000 mm 0 W/m -0,9 C 0,4 C 11,3 km/h (2 Bft) 100 %
09.04.2022 00:30 0,4 C 0,4 C 0,4 C 91 % 996,0 hPa 0,2 l/m 1,6 km/h (1 Bft) N-NW 337 0 min 0,000 mm 0 W/m -0,9 C 0,4 C 8,0 km/h (2 Bft) 100 %
09.04.2022 00:40 0,4 C 0,4 C 0,4 C 91 % 996,3 hPa 0,2 l/m 1,6 km/h (1 Bft) N-NW 337 0 min 0,000 mm 0 W/m -0,9 C 0,4 C 9,7 km/h (2 Bft) 100 %
09.04.2022 00:50 0,4 C 0,3 C 0,4 C 91 % 996,9 hPa 0,6 l/m 1,6 km/h (1 Bft) N-NW 337 0 min 0,000 mm 0 W/m -0,9 C 0,4 C 9,7 km/h (2 Bft) 100 %
09.04.2022 01:00 0,4 C 0,4 C 0,4 C 91 % 997,2 hPa 0,6 l/m 1,6 km/h (1 Bft) N 360 0 min 0,000 mm 0 W/m -0,9 C 0,4 C 6,4 km/h (2 Bft) 89 %
09.04.2022 01:10 0,5 C 0,4 C 0,6 C 91 % 997,5 hPa 0,8 l/m 1,6 km/h (1 Bft) N 360 0 min 0,000 mm 0 W/m -0,8 C 0,5 C 8,0 km/h (2 Bft) 100 %
09.04.2022 01:20 0,6 C 0,5 C 0,6 C 91 % 997,9 hPa 0,6 l/m 1,6 km/h (1 Bft) N-NW 337 0 min 0,000 mm 0 W/m -0,7 C 0,6 C 9,7 km/h (2 Bft) 100 %
09.04.2022 01:30 0,7 C 0,6 C 0,7 C 91 % 998,5 hPa 0,4 l/m 1,6 km/h (1 Bft) N 360 0 min 0,000 mm 0 W/m -0,6 C 0,7 C 11,3 km/h (2 Bft) 100 %
09.04.2022 01:40 0,7 C 0,7 C 0,7 C 91 % 998,8 hPa 0,2 l/m 0,0 km/h (0 Bft) N-NW 337 0 min 0,000 mm 0 W/m -0,6 C 0,7 C 6,4 km/h (2 Bft) 100 %
09.04.2022 01:50 0,8 C 0,7 C 0,8 C 91 % 999,3 hPa 0,2 l/m 0,0 km/h (0 Bft) N-NW 337 0 min 0,000 mm 0 W/m -0,5 C 0,8 C 8,0 km/h (2 Bft) 100 %
09.04.2022 02:00 0,8 C 0,8 C 0,8 C 91 % 999,6 hPa 0,2 l/m 0,0 km/h (0 Bft) N-NW 337 0 min 0,000 mm 0 W/m -0,5 C 0,8 C 6,4 km/h (2 Bft) 100 %
09.04.2022 02:10 0,7 C 0,7 C 0,8 C 91 % 999,9 hPa 0,0 l/m 0,0 km/h (0 Bft) N-NW 337 0 min 0,000 mm 0 W/m -0,6 C 0,7 C 4,8 km/h (1 Bft) 100 %
09.04.2022 02:20 0,6 C 0,6 C 0,7 C 91 % 1000,2 hPa 0,2 l/m 0,0 km/h (0 Bft) N 0 0 min 0,000 mm 0 W/m -0,7 C 0,6 C 0,0 km/h (0 Bft) 100 %
09.04.2022 02:30 0,5 C 0,5 C 0,6 C 91 % 1000,5 hPa 0,0 l/m 0,0 km/h (0 Bft) N 0 0 min 0,000 mm 0 W/m -0,8 C 0,5 C 0,0 km/h (0 Bft) 100 %
09.04.2022 02:40 0,4 C 0,4 C 0,5 C 91 % 1000,7 hPa 0,0 l/m 0,0 km/h (0 Bft) N 0 0 min 0,000 mm 0 W/m -0,9 C 0,4 C 0,0 km/h (0 Bft) 100 %
09.04.2022 02:50 0,3 C 0,3 C 0,4 C 91 % 1001,3 hPa 0,0 l/m 0,0 km/h (0 Bft) N 0 0 min 0,000 mm 0 W/m -1,0 C 0,3 C 0,0 km/h (0 Bft) 99 %
09.04.2022 03:00 0,4 C 0,3 C 0,4 C 91 % 1001,6 hPa 0,2 l/m 0,0 km/h (0 Bft) N 0 0 min 0,000 mm 0 W/m -0,9 C 0,4 C 0,0 km/h (0 Bft) 98 %
09.04.2022 03:10 0,6 C 0,4 C 0,6 C 91 % 1002,2 hPa 0,2 l/m 0,0 km/h (0 Bft) N 0 0 min 0,000 mm 0 W/m -0,7 C 0,6 C 0,0 km/h (0 Bft) 99 %
09.04.2022 03:20 0,7 C 0,6 C 0,7 C 91 % 1002,6 hPa 0,0 l/m 0,0 km/h (0 Bft) N 0 0 min 0,000 mm 0 W/m -0,6 C 0,7 C 0,0 km/h (0 Bft) 98 %
09.04.2022 03:30 0,8 C 0,7 C 0,8 C 91 % 1003,1 hPa 0,0 l/m 0,0 km/h (0 Bft) N 0 0 min 0,000 mm 0 W/m -0,5 C 0,8 C 0,0 km/h (0 Bft) 98 %
09.04.2022 03:40 0,8 C 0,8 C 0,8 C 91 % 1003,4 hPa 0,2 l/m 3,2 km/h (1 Bft) W-NW 292 0 min 0,000 mm 0 W/m -0,5 C 0,8 C 9,7 km/h (2 Bft) 98 %
09.04.2022 03:50 0,8 C 0,8 C 0,8 C 91 % 1003,6 hPa 0,0 l/m 1,6 km/h (1 Bft) W-NW 292 0 min 0,000 mm 0 W/m -0,5 C 0,8 C 9,7 km/h (2 Bft) 98 %
09.04.2022 04:00 0,9 C 0,8 C 0,9 C 91 % 1003,8 hPa 0,0 l/m 1,6 km/h (1 Bft) W-NW 292 0 min 0,000 mm 0 W/m -0,4 C 0,9 C 6,4 km/h (2 Bft) 99 %
09.04.2022 04:10 0,9 C 0,9 C 0,9 C 91 % 1004,1 hPa 0,0 l/m 1,6 km/h (1 Bft) W-NW 292 0 min 0,000 mm 0 W/m -0,4 C 0,9 C 8,0 km/h (2 Bft) 99 %
09.04.2022 04:20 1,0 C 0,9 C 1,0 C 91 % 1004,3 hPa 0,0 l/m 1,6 km/h (1 Bft) W-NW 292 0 min 0,000 mm 0 W/m -0,3 C 1,0 C 9,7 km/h (2 Bft) 99 %
09.04.2022 04:30 1,1 C 1,0 C 1,1 C 91 % 1004,7 hPa 0,0 l/m 4,8 km/h (1 Bft) NW 315 0 min 0,000 mm 0 W/m -0,2 C 1,1 C 11,3 km/h (2 Bft) 99 %
09.04.2022 04:40 1,0 C 1,0 C 1,1 C 92 % 1005,0 hPa 0,0 l/m 6,4 km/h (2 Bft) W-NW 292 0 min 0,000 mm 0 W/m -0,2 C 1,0 C 17,7 km/h (3 Bft) 100 %
09.04.2022 04:50 0,9 C 0,9 C 1,0 C 92 % 1005,3 hPa 0,0 l/m 4,8 km/h (1 Bft) NW 315 0 min 0,000 mm 0 W/m -0,2 C 0,9 C 16,1 km/h (3 Bft) 100 %
09.04.2022 05:00 0,9 C 0,9 C 0,9 C 91 % 1005,7 hPa 0,0 l/m 6,4 km/h (2 Bft) W-NW 292 0 min 0,000 mm 0 W/m -0,4 C 0,9 C 16,1 km/h (3 Bft) 100 %
09.04.2022 05:10 0,8 C 0,8 C 0,9 C 91 % 1006,0 hPa 0,0 l/m 8,0 km/h (2 Bft) W 270 0 min 0,000 mm 0 W/m -0,5 C -0,8 C 17,7 km/h (3 Bft) 99 %
09.04.2022 05:20 0,8 C 0,8 C 0,8 C 91 % 1006,4 hPa 0,0 l/m 9,7 km/h (2 Bft) W 270 0 min 0,000 mm 0 W/m -0,5 C -2,3 C 19,3 km/h (3 Bft) 99 %
09.04.2022 05:30 0,8 C 0,8 C 0,8 C 91 % 1006,6 hPa 0,0 l/m 9,7 km/h (2 Bft) W 270 0 min 0,000 mm 0 W/m -0,5 C -2,3 C 19,3 km/h (3 Bft) 100 %
09.04.2022 05:40 0,7 C 0,7 C 0,8 C 91 % 1006,9 hPa 0,0 l/m 9,7 km/h (2 Bft) W 270 0 min 0,000 mm 0 W/m -0,6 C -2,4 C 22,5 km/h (4 Bft) 100 %
09.04.2022 05:50 0,7 C 0,7 C 0,7 C 91 % 1007,0 hPa 0,0 l/m 8,0 km/h (2 Bft) W-NW 292 0 min 0,000 mm 0 W/m -0,6 C -0,9 C 20,9 km/h (4 Bft) 100 %
09.04.2022 06:00 0,7 C 0,7 C 0,7 C 91 % 1007,2 hPa 0,0 l/m 6,4 km/h (2 Bft) W 270 0 min 0,000 mm 0 W/m -0,6 C 0,7 C 16,1 km/h (3 Bft) 100 %
09.04.2022 06:10 0,7 C 0,7 C 0,7 C 91 % 1007,6 hPa 0,0 l/m 9,7 km/h (2 Bft) W-NW 292 0 min 0,000 mm 0 W/m -0,6 C -2,4 C 24,1 km/h (4 Bft) 100 %
09.04.2022 06:20 0,7 C 0,7 C 0,7 C 91 % 1007,8 hPa 0,0 l/m 9,7 km/h (2 Bft) W 270 0 min 0,000 mm 0 W/m -0,6 C -2,4 C 22,5 km/h (4 Bft) 100 %
09.04.2022 06:30 0,6 C 0,6 C 0,7 C 91 % 1007,9 hPa 0,0 l/m 6,4 km/h (2 Bft) W 270 0 min 0,000 mm 0 W/m -0,7 C 0,6 C 16,1 km/h (3 Bft) 99 %
09.04.2022 06:40 0,6 C 0,6 C 0,6 C 91 % 1008,2 hPa 0,0 l/m 4,8 km/h (1 Bft) W-NW 292 0 min 0,000 mm 0 W/m -0,7 C 0,6 C 16,1 km/h (3 Bft) 87 %
09.04.2022 06:50 0,6 C 0,6 C 0,6 C 91 % 1008,5 hPa 0,0 l/m 6,4 km/h (2 Bft) W-NW 292 0 min 0,000 mm 0 W/m -0,7 C 0,6 C 19,3 km/h (3 Bft) 100 %
09.04.2022 07:00 0,6 C 0,6 C 0,7 C 91 % 1008,7 hPa 0,0 l/m 6,4 km/h (2 Bft) W-NW 292 0 min 0,000 mm 5 W/m -0,7 C 0,6 C 17,7 km/h (3 Bft) 100 %
09.04.2022 07:10 0,7 C 0,7 C 0,7 C 91 % 1008,9 hPa 0,0 l/m 4,8 km/h (1 Bft) W-NW 292 0 min 0,000 mm 12 W/m -0,6 C 0,7 C 14,5 km/h (3 Bft) 100 %
09.04.2022 07:20 0,8 C 0,7 C 0,8 C 91 % 1009,0 hPa 0,0 l/m 6,4 km/h (2 Bft) W-NW 292 0 min 0,000 mm 16 W/m -0,5 C 0,8 C 16,1 km/h (3 Bft) 100 %
09.04.2022 07:30 0,9 C 0,7 C 0,9 C 91 % 1009,1 hPa 0,0 l/m 7,0 km/h (2 Bft) W-NW 288 0 min 0,000 mm 25 W/m -0,4 C 0,3 C 11,3 km/h (2 Bft) 90 %
09.04.2022 07:40 0,9 C 0,9 C 0,9 C 91 % 1009,5 hPa 0,0 l/m 9,5 km/h (2 Bft) W 269 0 min 0,000 mm 21 W/m -0,4 C -2,0 C 17,7 km/h (3 Bft) 100 %
09.04.2022 07:50 0,9 C 0,9 C 0,9 C 91 % 1009,8 hPa 0,0 l/m 9,7 km/h (2 Bft) W-SW 253 0 min 0,000 mm 39 W/m -0,4 C -2,2 C 20,9 km/h (4 Bft) 100 %
09.04.2022 08:00 0,9 C 0,9 C 0,9 C 91 % 1010,1 hPa 0,0 l/m 9,0 km/h (2 Bft) W 278 0 min 0,000 mm 67 W/m -0,4 C -1,6 C 20,9 km/h (4 Bft) 99 %
09.04.2022 08:10 1,0 C 0,9 C 1,0 C 91 % 1010,3 hPa 0,0 l/m 8,5 km/h (2 Bft) SW 234 0 min 0,025 mm 54 W/m -0,3 C -1,1 C 19,3 km/h (3 Bft) 100 %
09.04.2022 08:20 1,1 C 1,0 C 1,1 C 91 % 1010,5 hPa 0,0 l/m 7,7 km/h (2 Bft) W-NW 285 10 min 0,000 mm 153 W/m -0,2 C -0,2 C 19,3 km/h (3 Bft) 91 %
09.04.2022 08:30 1,2 C 1,0 C 1,2 C 91 % 1010,7 hPa 0,0 l/m 9,5 km/h (2 Bft) W-SW 257 10 min 0,000 mm 178 W/m -0,1 C -1,7 C 22,5 km/h (4 Bft) 100 %
09.04.2022 08:40 1,4 C 1,2 C 1,4 C 92 % 1010,8 hPa 0,0 l/m 8,9 km/h (2 Bft) W 259 0 min 0,000 mm 142 W/m 0,2 C -1,0 C 22,5 km/h (4 Bft) 100 %
09.04.2022 08:50 1,4 C 1,4 C 1,4 C 91 % 1010,9 hPa 0,0 l/m 5,7 km/h (1 Bft) W-NW 298 10 min 0,000 mm 158 W/m 0,1 C 1,4 C 16,1 km/h (3 Bft) 100 %
09.04.2022 09:00 1,4 C 1,4 C 1,5 C 92 % 1011,2 hPa 0,0 l/m 6,5 km/h (2 Bft) W-SW 255 10 min 0,051 mm 269 W/m 0,2 C 1,3 C 14,5 km/h (3 Bft) 100 %
09.04.2022 09:10 1,5 C 1,4 C 1,6 C 92 % 1011,3 hPa 0,0 l/m 10,9 km/h (2 Bft) W-SW 257 10 min 0,000 mm 171 W/m 0,3 C -2,5 C 29,0 km/h (5 Bft) 100 %
09.04.2022 09:20 1,6 C 1,5 C 1,6 C 92 % 1011,4 hPa 0,0 l/m 11,6 km/h (2 Bft) W 265 10 min 0,000 mm 234 W/m 0,4 C -2,9 C 25,7 km/h (4 Bft) 99 %
09.04.2022 09:30 1,6 C 1,5 C 1,6 C 92 % 1011,6 hPa 0,0 l/m 11,3 km/h (2 Bft) W 261 10 min 0,000 mm 200 W/m 0,4 C -2,7 C 27,4 km/h (4 Bft) 100 %
09.04.2022 09:40 1,6 C 1,6 C 1,6 C 92 % 1011,8 hPa 0,0 l/m 9,1 km/h (2 Bft) W 259 0 min 0,000 mm 121 W/m 0,4 C -0,9 C 29,0 km/h (5 Bft) 100 %
09.04.2022 09:50 1,8 C 1,6 C 1,8 C 92 % 1011,8 hPa 0,0 l/m 9,6 km/h (2 Bft) W-SW 240 10 min 0,000 mm 214 W/m 0,6 C -1,1 C 27,4 km/h (4 Bft) 92 %
09.04.2022 10:00 2,1 C 1,8 C 2,1 C 92 % 1012,0 hPa 0,0 l/m 6,2 km/h (2 Bft) W 261 10 min 0,076 mm 202 W/m 0,9 C 2,1 C 25,7 km/h (4 Bft) 99 %
09.04.2022 10:10 2,2 C 2,1 C 2,2 C 92 % 1012,1 hPa 0,0 l/m 5,8 km/h (2 Bft) W 267 10 min 0,000 mm 276 W/m 1,0 C 2,2 C 20,9 km/h (4 Bft) 100 %
09.04.2022 10:20 2,5 C 2,2 C 2,5 C 92 % 1012,2 hPa 0,0 l/m 5,1 km/h (1 Bft) W-SW 250 10 min 0,000 mm 316 W/m 1,3 C 2,5 C 17,7 km/h (3 Bft) 100 %
09.04.2022 10:30 2,6 C 2,5 C 2,6 C 92 % 1012,3 hPa 0,0 l/m 10,9 km/h (2 Bft) W 277 10 min 0,000 mm 200 W/m 1,4 C -1,2 C 27,4 km/h (4 Bft) 100 %
09.04.2022 10:40 2,7 C 2,6 C 2,7 C 92 % 1012,4 hPa 0,0 l/m 7,4 km/h (2 Bft) NW 317 10 min 0,000 mm 165 W/m 1,5 C 1,7 C 22,5 km/h (4 Bft) 100 %
09.04.2022 10:50 3,0 C 2,7 C 3,0 C 92 % 1012,5 hPa 0,0 l/m 9,7 km/h (2 Bft) W 261 10 min 0,000 mm 652 W/m 1,8 C 0,1 C 24,1 km/h (4 Bft) 100 %
09.04.2022 11:00 3,4 C 3,0 C 3,4 C 91 % 1012,6 hPa 0,0 l/m 8,3 km/h (2 Bft) W-SW 255 10 min 0,102 mm 320 W/m 2,1 C 1,7 C 19,3 km/h (3 Bft) 100 %
09.04.2022 11:10 3,9 C 3,4 C 3,9 C 91 % 1012,6 hPa 0,0 l/m 6,3 km/h (2 Bft) SW 232 10 min 0,000 mm 253 W/m 2,6 C 3,9 C 17,7 km/h (3 Bft) 100 %
09.04.2022 11:20 4,1 C 3,9 C 4,1 C 89 % 1012,7 hPa 0,0 l/m 9,0 km/h (2 Bft) W 272 10 min 0,000 mm 274 W/m 2,5 C 1,8 C 22,5 km/h (4 Bft) 100 %
09.04.2022 11:30 4,6 C 4,1 C 4,6 C 88 % 1012,9 hPa 0,0 l/m 9,2 km/h (2 Bft) W-NW 298 10 min 0,000 mm 202 W/m 2,8 C 2,2 C 20,9 km/h (4 Bft) 100 %
09.04.2022 11:40 4,7 C 4,6 C 4,7 C 86 % 1013,0 hPa 0,0 l/m 8,9 km/h (2 Bft) NW 304 10 min 0,000 mm 285 W/m 2,6 C 2,6 C 20,9 km/h (4 Bft) 100 %
09.04.2022 11:50 4,8 C 4,7 C 4,8 C 85 % 1013,0 hPa 0,0 l/m 10,7 km/h (2 Bft) W-NW 303 10 min 0,000 mm 251 W/m 2,5 C 1,4 C 29,0 km/h (5 Bft) 100 %
09.04.2022 12:00 5,0 C 4,8 C 5,0 C 83 % 1013,1 hPa 0,0 l/m 12,7 km/h (3 Bft) W 276 10 min 0,152 mm 343 W/m 2,4 C 0,3 C 30,6 km/h (5 Bft) 100 %
09.04.2022 12:10 5,6 C 5,0 C 5,6 C 81 % 1013,1 hPa 0,0 l/m 9,6 km/h (2 Bft) W 259 10 min 0,000 mm 251 W/m 2,6 C 3,0 C 25,7 km/h (4 Bft) 100 %
09.04.2022 12:20 5,8 C 5,6 C 5,8 C 81 % 1013,2 hPa 0,0 l/m 8,8 km/h (2 Bft) NW 306 10 min 0,000 mm 211 W/m 2,8 C 3,8 C 19,3 km/h (3 Bft) 100 %
09.04.2022 12:30 5,7 C 5,7 C 5,8 C 80 % 1013,2 hPa 0,0 l/m 7,0 km/h (2 Bft) NW 321 0 min 0,000 mm 114 W/m 2,5 C 5,2 C 19,3 km/h (3 Bft) 100 %
09.04.2022 12:40 5,6 C 5,6 C 5,7 C 79 % 1013,2 hPa 0,0 l/m 6,3 km/h (2 Bft) W-NW 300 10 min 0,000 mm 281 W/m 2,3 C 5,6 C 16,1 km/h (3 Bft) 100 %
09.04.2022 12:50 6,1 C 5,6 C 6,1 C 78 % 1013,1 hPa 0,0 l/m 7,3 km/h (2 Bft) W-SW 250 10 min 0,000 mm 923 W/m 2,6 C 5,3 C 20,9 km/h (4 Bft) 100 %
09.04.2022 13:00 6,6 C 6,1 C 6,6 C 75 % 1013,2 hPa 0,0 l/m 8,9 km/h (2 Bft) W-NW 292 10 min 0,178 mm 552 W/m 2,5 C 4,6 C 19,3 km/h (3 Bft) 100 %
09.04.2022 13:10 6,8 C 6,6 C 6,8 C 71 % 1013,2 hPa 0,0 l/m 11,8 km/h (2 Bft) W-SW 256 10 min 0,000 mm 737 W/m 1,9 C 2,9 C 22,5 km/h (4 Bft) 99 %
09.04.2022 13:20 7,2 C 6,8 C 7,2 C 70 % 1013,2 hPa 0,0 l/m 11,3 km/h (2 Bft) W 271 10 min 0,000 mm 744 W/m 2,1 C 3,7 C 22,5 km/h (4 Bft) 100 %
09.04.2022 13:30 7,1 C 7,1 C 7,3 C 68 % 1013,2 hPa 0,0 l/m 15,6 km/h (3 Bft) W 265 10 min 0,000 mm 628 W/m 1,6 C 1,3 C 30,6 km/h (5 Bft) 100 %
09.04.2022 13:40 7,4 C 7,1 C 7,4 C 69 % 1013,1 hPa 0,0 l/m 11,7 km/h (2 Bft) W-NW 293 10 min 0,000 mm 186 W/m 2,1 C 3,7 C 25,7 km/h (4 Bft) 100 %
09.04.2022 13:50 7,3 C 7,3 C 7,5 C 65 % 1013,1 hPa 0,0 l/m 10,2 km/h (2 Bft) W 264 10 min 0,000 mm 216 W/m 1,2 C 4,5 C 24,1 km/h (4 Bft) 100 %
09.04.2022 14:00 7,3 C 7,2 C 7,3 C 68 % 1013,2 hPa 0,0 l/m 6,9 km/h (2 Bft) NW 311 10 min 0,254 mm 195 W/m 1,8 C 6,9 C 22,5 km/h (4 Bft) 100 %
09.04.2022 14:10 7,2 C 7,2 C 7,3 C 68 % 1013,1 hPa 0,0 l/m 9,3 km/h (2 Bft) W-NW 286 10 min 0,000 mm 229 W/m 1,7 C 5,0 C 19,3 km/h (3 Bft) 100 %
09.04.2022 14:20 7,2 C 7,1 C 7,2 C 65 % 1013,0 hPa 0,0 l/m 13,7 km/h (3 Bft) W-NW 292 10 min 0,000 mm 165 W/m 1,1 C 2,4 C 27,4 km/h (4 Bft) 100 %
09.04.2022 14:30 7,0 C 7,0 C 7,2 C 64 % 1013,0 hPa 0,0 l/m 14,7 km/h (3 Bft) W-NW 303 0 min 0,000 mm 114 W/m 0,7 C 1,6 C 29,0 km/h (5 Bft) 100 %
09.04.2022 14:40 7,7 C 7,0 C 7,7 C 62 % 1012,7 hPa 0,0 l/m 11,8 km/h (2 Bft) W-NW 288 10 min 0,000 mm 770 W/m 0,9 C 4,0 C 29,0 km/h (5 Bft) 100 %
09.04.2022 14:50 8,5 C 7,7 C 8,5 C 60 % 1012,7 hPa 0,0 l/m 14,2 km/h (3 Bft) W 265 0 min 0,000 mm 151 W/m 1,2 C 3,7 C 25,7 km/h (4 Bft) 100 %
09.04.2022 15:00 8,3 C 8,3 C 8,5 C 58 % 1012,9 hPa 0,0 l/m 16,1 km/h (3 Bft) W-NW 295 10 min 0,254 mm 784 W/m 0,5 C 2,6 C 35,4 km/h (5 Bft) 100 %
09.04.2022 15:10 8,7 C 8,3 C 8,8 C 57 % 1012,7 hPa 0,0 l/m 16,7 km/h (3 Bft) W 275 10 min 0,000 mm 274 W/m 0,7 C 2,8 C 32,2 km/h (5 Bft) 91 %
09.04.2022 15:20 8,8 C 8,6 C 8,8 C 58 % 1012,7 hPa 0,0 l/m 14,6 km/h (3 Bft) W-NW 293 10 min 0,000 mm 747 W/m 1,0 C 3,9 C 37,0 km/h (5 Bft) 100 %
09.04.2022 15:30 9,2 C 8,8 C 9,3 C 55 % 1012,8 hPa 0,0 l/m 13,9 km/h (3 Bft) W 260 10 min 0,000 mm 715 W/m 0,6 C 4,7 C 30,6 km/h (5 Bft) 100 %
09.04.2022 15:40 8,8 C 8,8 C 9,2 C 55 % 1012,8 hPa 0,0 l/m 15,1 km/h (3 Bft) W-NW 282 10 min 0,000 mm 759 W/m 0,3 C 3,6 C 33,8 km/h (5 Bft) 100 %
09.04.2022 15:50 8,8 C 8,8 C 8,9 C 56 % 1012,8 hPa 0,0 l/m 12,0 km/h (2 Bft) W 271 10 min 0,000 mm 192 W/m 0,5 C 5,1 C 32,2 km/h (5 Bft) 100 %
09.04.2022 16:00 8,7 C 8,7 C 8,8 C 54 % 1012,8 hPa 0,0 l/m 12,7 km/h (3 Bft) W-NW 302 10 min 0,305 mm 241 W/m -0,1 C 4,7 C 32,2 km/h (5 Bft) 100 %
09.04.2022 16:10 8,3 C 8,3 C 8,7 C 56 % 1012,8 hPa 0,0 l/m 12,1 km/h (2 Bft) W-SW 255 10 min 0,000 mm 209 W/m 0,0 C 4,5 C 32,2 km/h (5 Bft) 100 %
09.04.2022 16:20 8,7 C 8,3 C 8,7 C 54 % 1012,8 hPa 0,0 l/m 9,8 km/h (2 Bft) W 261 10 min 0,000 mm 649 W/m -0,1 C 6,3 C 30,6 km/h (5 Bft) 100 %
09.04.2022 16:30 9,2 C 8,7 C 9,2 C 53 % 1012,9 hPa 0,0 l/m 12,9 km/h (3 Bft) SW 232 10 min 0,000 mm 698 W/m 0,1 C 5,1 C 29,0 km/h (5 Bft) 100 %
09.04.2022 16:40 8,9 C 8,8 C 9,3 C 55 % 1012,8 hPa 0,0 l/m 10,1 km/h (2 Bft) W-NW 298 10 min 0,000 mm 216 W/m 0,4 C 6,3 C 25,7 km/h (4 Bft) 100 %
09.04.2022 16:50 9,4 C 8,8 C 9,4 C 56 % 1012,8 hPa 0,0 l/m 6,5 km/h (2 Bft) W-NW 301 10 min 0,000 mm 359 W/m 1,1 C 9,4 C 16,1 km/h (3 Bft) 100 %
09.04.2022 17:00 9,1 C 9,1 C 9,5 C 53 % 1012,8 hPa 0,0 l/m 8,4 km/h (2 Bft) W 281 0 min 0,203 mm 120 W/m 0,0 C 7,6 C 22,5 km/h (4 Bft) 100 %
09.04.2022 17:10 8,9 C 8,8 C 9,1 C 55 % 1012,7 hPa 0,0 l/m 8,9 km/h (2 Bft) NW 311 0 min 0,000 mm 123 W/m 0,4 C 7,1 C 20,9 km/h (4 Bft) 100 %
09.04.2022 17:20 9,1 C 8,9 C 9,1 C 56 % 1012,7 hPa 0,0 l/m 8,7 km/h (2 Bft) W 266 10 min 0,000 mm 519 W/m 0,8 C 7,4 C 25,7 km/h (4 Bft) 100 %
09.04.2022 17:30 9,2 C 9,1 C 9,3 C 53 % 1013,0 hPa 0,0 l/m 13,1 km/h (3 Bft) W 264 10 min 0,000 mm 489 W/m 0,1 C 5,0 C 33,8 km/h (5 Bft) 100 %
09.04.2022 17:40 9,5 C 9,2 C 9,5 C 55 % 1013,0 hPa 0,0 l/m 8,7 km/h (2 Bft) W-NW 296 10 min 0,000 mm 411 W/m 0,9 C 7,9 C 24,1 km/h (4 Bft) 100 %
09.04.2022 17:50 9,6 C 9,5 C 9,6 C 53 % 1013,2 hPa 0,0 l/m 11,6 km/h (2 Bft) SW 236 10 min 0,000 mm 390 W/m 0,5 C 6,3 C 29,0 km/h (5 Bft) 100 %
09.04.2022 18:00 9,3 C 9,3 C 9,6 C 52 % 1013,3 hPa 0,0 l/m 9,8 km/h (2 Bft) W 281 10 min 0,203 mm 352 W/m -0,0 C 6,9 C 25,7 km/h (4 Bft) 100 %
09.04.2022 18:10 9,5 C 9,3 C 9,5 C 51 % 1013,2 hPa 0,0 l/m 9,6 km/h (2 Bft) W-SW 240 10 min 0,000 mm 294 W/m -0,1 C 7,3 C 29,0 km/h (5 Bft) 100 %
09.04.2022 18:20 8,6 C 8,6 C 9,5 C 54 % 1013,3 hPa 0,0 l/m 15,2 km/h (3 Bft) W-NW 286 0 min 0,000 mm 104 W/m -0,2 C 3,3 C 33,8 km/h (5 Bft) 100 %
09.04.2022 18:30 8,2 C 8,2 C 8,6 C 57 % 1013,3 hPa 0,0 l/m 9,7 km/h (2 Bft) W-NW 300 0 min 0,000 mm 28 W/m 0,2 C 5,8 C 22,5 km/h (4 Bft) 100 %
09.04.2022 18:40 7,8 C 7,8 C 8,2 C 60 % 1013,9 hPa 0,0 l/m 9,6 km/h (2 Bft) NW 324 0 min 0,000 mm 16 W/m 0,5 C 5,4 C 25,7 km/h (4 Bft) 100 %
09.04.2022 18:50 6,9 C 6,9 C 7,8 C 70 % 1013,9 hPa 0,0 l/m 11,7 km/h (2 Bft) N-NO 27 0 min 0,000 mm 72 W/m 1,8 C 3,1 C 35,4 km/h (5 Bft) 100 %
09.04.2022 19:00 6,2 C 6,2 C 6,9 C 72 % 1013,9 hPa 0,0 l/m 0,5 km/h (0 Bft) N 5 0 min 0,077 mm 30 W/m 1,5 C 6,2 C 9,7 km/h (2 Bft) 100 %
09.04.2022 19:10 5,7 C 5,7 C 6,2 C 74 % 1013,8 hPa 0,0 l/m 0,0 km/h (0 Bft) N 5 0 min 0,000 mm 21 W/m 1,4 C 5,7 C 0,0 km/h (0 Bft) 100 %
09.04.2022 19:20 5,7 C 5,6 C 5,7 C 71 % 1013,8 hPa 0,0 l/m 2,7 km/h (1 Bft) W 263 0 min 0,000 mm 18 W/m 0,9 C 5,7 C 8,0 km/h (2 Bft) 100 %
09.04.2022 19:30 5,9 C 5,7 C 5,9 C 70 % 1013,7 hPa 0,0 l/m 8,5 km/h (2 Bft) W 264 0 min 0,000 mm 62 W/m 0,9 C 4,2 C 25,7 km/h (4 Bft) 100 %
09.04.2022 19:40 5,8 C 5,8 C 5,9 C 74 % 1013,7 hPa 0,0 l/m 0,3 km/h (0 Bft) W-SW 248 0 min 0,000 mm 14 W/m 1,5 C 5,8 C 6,4 km/h (2 Bft) 100 %
09.04.2022 19:50 5,6 C 5,6 C 5,8 C 73 % 1013,9 hPa 0,0 l/m 0,0 km/h (0 Bft) W-SW 248 0 min 0,000 mm 7 W/m 1,2 C 5,6 C 0,0 km/h (0 Bft) 100 %
09.04.2022 20:00 5,1 C 5,1 C 5,6 C 76 % 1014,0 hPa 0,0 l/m 0,0 km/h (0 Bft) W-SW 248 0 min 0,025 mm 5 W/m 1,2 C 5,1 C 0,0 km/h (0 Bft) 100 %
09.04.2022 20:10 4,7 C 4,7 C 5,1 C 77 % 1014,1 hPa 0,0 l/m 0,9 km/h (0 Bft) W-SW 253 0 min 0,000 mm 0 W/m 1,0 C 4,7 C 8,0 km/h (2 Bft) 92 %
09.04.2022 20:20 5,0 C 4,6 C 5,0 C 69 % 1014,4 hPa 0,0 l/m 8,1 km/h (2 Bft) W-NW 284 0 min 0,000 mm 0 W/m -0,2 C 3,5 C 17,7 km/h (3 Bft) 100 %
09.04.2022 20:30 5,4 C 5,0 C 5,4 C 69 % 1014,8 hPa 0,0 l/m 14,3 km/h (3 Bft) NW 314 0 min 0,000 mm 0 W/m 0,2 C -0,1 C 38,6 km/h (5 Bft) 100 %
09.04.2022 20:40 5,3 C 5,3 C 5,5 C 75 % 1015,1 hPa 0,0 l/m 23,8 km/h (4 Bft) W-NW 302 0 min 0,000 mm 0 W/m 1,2 C -4,2 C 46,7 km/h (6 Bft) 100 %
09.04.2022 20:50 4,6 C 4,6 C 5,3 C 79 % 1015,3 hPa 0,0 l/m 21,4 km/h (4 Bft) N-NW 327 0 min 0,000 mm 0 W/m 1,3 C -4,2 C 37,0 km/h (5 Bft) 100 %
09.04.2022 21:00 4,1 C 4,1 C 4,6 C 82 % 1015,4 hPa 0,0 l/m 11,6 km/h (2 Bft) NW 326 0 min 0,025 mm 0 W/m 1,3 C -0,0 C 33,8 km/h (5 Bft) 99 %
09.04.2022 21:10 3,7 C 3,7 C 4,1 C 83 % 1015,5 hPa 0,0 l/m 9,7 km/h (2 Bft) N-NW 337 0 min 0,000 mm 0 W/m 1,1 C 0,9 C 30,6 km/h (5 Bft) 100 %
09.04.2022 21:20 3,4 C 3,4 C 3,7 C 84 % 1015,5 hPa 0,0 l/m 4,8 km/h (1 Bft) N-NW 337 0 min 0,000 mm 0 W/m 1,0 C 3,4 C 20,9 km/h (4 Bft) 100 %
09.04.2022 21:30 3,3 C 3,2 C 3,4 C 84 % 1015,5 hPa 0,0 l/m 0,0 km/h (0 Bft) N 0 0 min 0,000 mm 0 W/m 0,9 C 3,3 C 0,0 km/h (0 Bft) 100 %
09.04.2022 21:40 3,0 C 3,0 C 3,3 C 85 % 1015,5 hPa 0,0 l/m 0,0 km/h (0 Bft) N 0 0 min 0,000 mm 0 W/m 0,7 C 3,0 C 0,0 km/h (0 Bft) 100 %
09.04.2022 21:50 2,7 C 2,7 C 3,0 C 85 % 1015,6 hPa 0,0 l/m 0,0 km/h (0 Bft) N 0 0 min 0,000 mm 0 W/m 0,4 C 2,7 C 0,0 km/h (0 Bft) 100 %
09.04.2022 22:00 2,5 C 2,5 C 2,8 C 86 % 1015,7 hPa 0,0 l/m 0,0 km/h (0 Bft) N 0 0 min 0,000 mm 0 W/m 0,4 C 2,5 C 0,0 km/h (0 Bft) 100 %
09.04.2022 22:10 2,3 C 2,3 C 2,5 C 86 % 1015,8 hPa 0,0 l/m 0,0 km/h (0 Bft) N 0 0 min 0,000 mm 0 W/m 0,2 C 2,3 C 0,0 km/h (0 Bft) 100 %
09.04.2022 22:20 2,1 C 2,1 C 2,3 C 87 % 1015,9 hPa 0,0 l/m 0,0 km/h (0 Bft) N 0 0 min 0,000 mm 0 W/m 0,2 C 2,1 C 0,0 km/h (0 Bft) 91 %
09.04.2022 22:30 1,8 C 1,8 C 2,1 C 88 % 1016,1 hPa 0,0 l/m 0,0 km/h (0 Bft) N 0 0 min 0,000 mm 0 W/m 0,0 C 1,8 C 0,0 km/h (0 Bft) 100 %
09.04.2022 22:40 1,7 C 1,7 C 1,8 C 88 % 1016,2 hPa 0,0 l/m 0,0 km/h (0 Bft) N 0 0 min 0,000 mm 0 W/m -0,1 C 1,7 C 0,0 km/h (0 Bft) 100 %
09.04.2022 22:50 1,6 C 1,6 C 1,7 C 90 % 1016,3 hPa 0,0 l/m 0,0 km/h (0 Bft) N 0 0 min 0,000 mm 0 W/m 0,1 C 1,6 C 0,0 km/h (0 Bft) 100 %
09.04.2022 23:00 1,6 C 1,6 C 1,6 C 90 % 1016,5 hPa 0,0 l/m 0,0 km/h (0 Bft) N 0 0 min 0,000 mm 0 W/m 0,1 C 1,6 C 0,0 km/h (0 Bft) 100 %
09.04.2022 23:10 1,6 C 1,6 C 1,6 C 90 % 1016,5 hPa 0,0 l/m 0,0 km/h (0 Bft) N 0 0 min 0,000 mm 0 W/m 0,1 C 1,6 C 0,0 km/h (0 Bft) 100 %
09.04.2022 23:20 1,5 C 1,5 C 1,6 C 90 % 1016,6 hPa 0,0 l/m 0,0 km/h (0 Bft) N 0 0 min 0,000 mm 0 W/m 0,0 C 1,5 C 0,0 km/h (0 Bft) 100 %
09.04.2022 23:30 1,6 C 1,5 C 1,6 C 90 % 1016,6 hPa 0,0 l/m 0,0 km/h (0 Bft) N 0 0 min 0,000 mm 0 W/m 0,1 C 1,6 C 0,0 km/h (0 Bft) 100 %
09.04.2022 23:40 1,7 C 1,6 C 1,7 C 89 % 1016,8 hPa 0,0 l/m 0,0 km/h (0 Bft) N 0 0 min 0,000 mm 0 W/m 0,1 C 1,7 C 0,0 km/h (0 Bft) 100 %
09.04.2022 23:50 1,6 C 1,6 C 1,7 C 89 % 1016,8 hPa 0,0 l/m 0,0 km/h (0 Bft) N 0 0 min 0,000 mm 0 W/m -0,0 C 1,6 C 0,0 km/h (0 Bft) 100 %
_ Min-Zeit 00:00 00:00 00:00 18:10 00:00 - 00:00 - - - - - 00:00 20:50 02:20 06:40
Minimum _ 0,3 C 0,2 C 0,3 C 51 % 994,7 hPa - 0,0 km/h (0 Bft) - - - - - -1,0 C -4,2 C 0,0 km/h (0 Bft) 87 %
_ Max-Zeit 17:50 17:50 17:50 04:40 23:40 00:00 20:40 - - 08:20 16:00 12:50 12:20 16:50 20:40 00:10
Maximum _ 9,6 C 9,5 C 9,6 C 92 % 1016,8 hPa 1,0 l/m 23,8 km/h
W-NW (4 Bft)
- - 10 min 0,305 mm 923 W/m 2,8 C 9,4 C 46,7 km/h
NW (6 Bft)
100 %
Durchschnitt _ 3,7 C 3,6 C 3,8 C 81 % 1010,0 hPa #6,8 l/m 6,7 km/h (2 Bft) W-NW - #8:50 h #1,930 mm 268 W/m 0,4 C 2,0 C 17,2 km/h (3 Bft) 99 %
PRIVATE WETTERSTATION BILLIGHEIM-ALLFELD - www.neckar-odenwald-wetter.de - Holger Sonntag